Estación Meteorológica Peña el Pijo (Robertgarden) [ 11/12/18 21:18:07 CET ]

Fecha Hora Presion(HPa) Temp (°C) Humedad % Rocio (°C) Viento ( m/s) Direccion Lluvia 1Hora(mm) Lluvia 24H(mm) LLuvia Total(mm)
2018-Sep-16 01:01:23 1014.400 14.1 90 12.5       5.69 350.68
2018-Sep-16 02:01:37 1014.200 14.3 90 12.7       5.69 350.68
2018-Sep-16 03:01:42 1014.400 14.7 90 13.1       5.69 350.68
2018-Sep-16 04:01:41 1013.900 14.6 90 13.0       5.69 350.68
2018-Sep-16 05:01:42 1013.300 13.9 91 12.5       5.69 350.68
2018-Sep-16 06:01:43 1013.200 13.4 91 12.0       5.69 350.68
2018-Sep-16 07:01:28 1013.700 12.4 91 11.0       5.69 350.68
2018-Sep-16 08:01:23 1013.700 11.6 91 10.2       5.69 350.68
2018-Sep-16 09:01:25 1014.200 12.3 92 10.9       2.07 350.68
2018-Sep-16 10:01:20 1014.500 16.6 93 15.3       0.51 350.68
2018-Sep-16 11:01:27 1014.400 22.4 74 17.5         350.68
2018-Sep-16 12:01:47 1014.300 26.3 59 17.7         350.68
2018-Sep-16 13:01:35 1014.000 27.2 50 15.9         350.68
2018-Sep-16 14:01:51 1013.400 27.4 50 16.1         350.68
2018-Sep-16 15:01:49 1013.100 27.3 49 15.6         350.68
2018-Sep-16 16:01:54 1012.700 28.6 49 16.8         350.68
2018-Sep-16 17:01:42 1012.600 25.9 53 15.6         350.68
2018-Sep-16 18:01:54 1012.400 23.6 58 14.8         350.68
2018-Sep-16 19:02:00 1012.600 24.1 59 15.6         350.68
2018-Sep-16 20:02:00 1012.900 21.8 65 14.9         350.68
2018-Sep-16 21:01:53 1013.200 19.6 72 14.4         350.68
2018-Sep-16 22:01:53 1013.900 18.3 78 14.4         350.68
2018-Sep-16 23:01:50 1014.200 17.0 81 13.7         350.68

Temperatura Máxima:28°    Temperatura Mínima:11°
Presión Máxima:1014.500 Hpa    Presión Mínima:1012.400 Hpa


Volver